sensor_id;sensor_type;location;lat;lon;timestamp;P1;durP1;ratioP1;P2;durP2;ratioP2
56567;SDS011;42456;49.956;20.004;2022-08-14T00:00:52;14.45;;;9.68;;
56567;SDS011;42456;49.956;20.004;2022-08-14T00:03:27;14.53;;;10.05;;
56567;SDS011;42456;49.956;20.004;2022-08-14T00:05:53;15.55;;;10.48;;
56567;SDS011;42456;49.956;20.004;2022-08-14T00:08:21;15.60;;;9.63;;
56567;SDS011;42456;49.956;20.004;2022-08-14T00:10:47;14.75;;;10.30;;
56567;SDS011;42456;49.956;20.004;2022-08-14T00:13:14;16.77;;;10.08;;
56567;SDS011;42456;49.956;20.004;2022-08-14T00:15:44;17.82;;;10.60;;
56567;SDS011;42456;49.956;20.004;2022-08-14T00:18:15;15.25;;;10.82;;
56567;SDS011;42456;49.956;20.004;2022-08-14T00:20:45;14.38;;;9.45;;
56567;SDS011;42456;49.956;20.004;2022-08-14T00:23:12;14.73;;;9.80;;
56567;SDS011;42456;49.956;20.004;2022-08-14T00:25:40;15.25;;;10.48;;
56567;SDS011;42456;49.956;20.004;2022-08-14T00:28:09;15.13;;;10.40;;
56567;SDS011;42456;49.956;20.004;2022-08-14T00:33:05;15.15;;;9.73;;
56567;SDS011;42456;49.956;20.004;2022-08-14T00:35:31;14.25;;;9.83;;
56567;SDS011;42456;49.956;20.004;2022-08-14T00:37:59;18.23;;;10.70;;
56567;SDS011;42456;49.956;20.004;2022-08-14T00:40:26;14.05;;;10.72;;
56567;SDS011;42456;49.956;20.004;2022-08-14T00:42:53;16.27;;;10.23;;
56567;SDS011;42456;49.956;20.004;2022-08-14T00:45:19;14.38;;;10.03;;
56567;SDS011;42456;49.956;20.004;2022-08-14T00:47:46;15.35;;;10.50;;
56567;SDS011;42456;49.956;20.004;2022-08-14T00:50:14;16.93;;;11.35;;
56567;SDS011;42456;49.956;20.004;2022-08-14T00:52:45;17.35;;;11.38;;
56567;SDS011;42456;49.956;20.004;2022-08-14T00:55:16;16.62;;;11.03;;
56567;SDS011;42456;49.956;20.004;2022-08-14T00:57:44;15.35;;;10.98;;
56567;SDS011;42456;49.956;20.004;2022-08-14T01:00:13;19.15;;;11.03;;
56567;SDS011;42456;49.956;20.004;2022-08-14T01:02:41;14.93;;;10.08;;
56567;SDS011;42456;49.956;20.004;2022-08-14T01:05:09;15.15;;;10.60;;
56567;SDS011;42456;49.956;20.004;2022-08-14T01:07:42;15.53;;;10.10;;
56567;SDS011;42456;49.956;20.004;2022-08-14T01:10:08;17.02;;;10.43;;
56567;SDS011;42456;49.956;20.004;2022-08-14T01:12:36;18.20;;;10.78;;
56567;SDS011;42456;49.956;20.004;2022-08-14T01:15:05;14.73;;;9.23;;
56567;SDS011;42456;49.956;20.004;2022-08-14T01:17:33;14.33;;;9.65;;
56567;SDS011;42456;49.956;20.004;2022-08-14T01:20:14;14.70;;;9.63;;
56567;SDS011;42456;49.956;20.004;2022-08-14T01:22:55;16.32;;;10.15;;
56567;SDS011;42456;49.956;20.004;2022-08-14T01:25:21;15.40;;;10.28;;
56567;SDS011;42456;49.956;20.004;2022-08-14T01:27:48;15.35;;;10.60;;
56567;SDS011;42456;49.956;20.004;2022-08-14T01:30:15;15.88;;;10.70;;
56567;SDS011;42456;49.956;20.004;2022-08-14T01:32:43;14.20;;;10.03;;
56567;SDS011;42456;49.956;20.004;2022-08-14T01:35:10;15.35;;;10.30;;
56567;SDS011;42456;49.956;20.004;2022-08-14T01:37:36;14.75;;;10.15;;
56567;SDS011;42456;49.956;20.004;2022-08-14T01:40:03;15.25;;;9.63;;
56567;SDS011;42456;49.956;20.004;2022-08-14T01:42:30;13.53;;;9.00;;
56567;SDS011;42456;49.956;20.004;2022-08-14T01:44:57;15.63;;;9.55;;
56567;SDS011;42456;49.956;20.004;2022-08-14T01:47:23;14.18;;;9.43;;
56567;SDS011;42456;49.956;20.004;2022-08-14T01:49:50;13.83;;;9.08;;
56567;SDS011;42456;49.956;20.004;2022-08-14T01:52:19;15.40;;;10.50;;
56567;SDS011;42456;49.956;20.004;2022-08-14T01:54:46;14.40;;;9.55;;
56567;SDS011;42456;49.956;20.004;2022-08-14T01:57:14;19.80;;;11.10;;
56567;SDS011;42456;49.956;20.004;2022-08-14T01:59:40;16.48;;;10.80;;
56567;SDS011;42456;49.956;20.004;2022-08-14T02:02:08;17.52;;;10.38;;
56567;SDS011;42456;49.956;20.004;2022-08-14T02:04:37;16.35;;;10.85;;
56567;SDS011;42456;49.956;20.004;2022-08-14T02:07:05;13.35;;;8.65;;
56567;SDS011;42456;49.956;20.004;2022-08-14T02:09:34;19.23;;;10.20;;
56567;SDS011;42456;49.956;20.004;2022-08-14T02:14:30;18.92;;;9.88;;
56567;SDS011;42456;49.956;20.004;2022-08-14T02:17:00;15.83;;;10.13;;
56567;SDS011;42456;49.956;20.004;2022-08-14T02:19:28;16.23;;;10.98;;
56567;SDS011;42456;49.956;20.004;2022-08-14T02:21:57;18.40;;;11.10;;
56567;SDS011;42456;49.956;20.004;2022-08-14T02:24:25;16.48;;;9.98;;
56567;SDS011;42456;49.956;20.004;2022-08-14T02:26:54;16.30;;;10.30;;
56567;SDS011;42456;49.956;20.004;2022-08-14T02:29:25;16.10;;;9.90;;
56567;SDS011;42456;49.956;20.004;2022-08-14T02:31:55;17.62;;;11.33;;
56567;SDS011;42456;49.956;20.004;2022-08-14T02:34:29;16.75;;;10.55;;
56567;SDS011;42456;49.956;20.004;2022-08-14T02:37:02;16.05;;;9.35;;
56567;SDS011;42456;49.956;20.004;2022-08-14T02:39:40;14.75;;;10.08;;
56567;SDS011;42456;49.956;20.004;2022-08-14T02:42:08;15.05;;;8.58;;
56567;SDS011;42456;49.956;20.004;2022-08-14T02:44:38;13.38;;;9.20;;
56567;SDS011;42456;49.956;20.004;2022-08-14T02:47:09;13.30;;;8.53;;
56567;SDS011;42456;49.956;20.004;2022-08-14T02:49:36;13.28;;;8.83;;
56567;SDS011;42456;49.956;20.004;2022-08-14T02:52:03;13.25;;;8.95;;
56567;SDS011;42456;49.956;20.004;2022-08-14T02:54:32;13.98;;;9.23;;
56567;SDS011;42456;49.956;20.004;2022-08-14T02:56:59;13.62;;;9.30;;
56567;SDS011;42456;49.956;20.004;2022-08-14T02:59:29;13.15;;;8.98;;
56567;SDS011;42456;49.956;20.004;2022-08-14T03:01:57;13.43;;;9.47;;
56567;SDS011;42456;49.956;20.004;2022-08-14T03:04:25;14.15;;;9.55;;
56567;SDS011;42456;49.956;20.004;2022-08-14T03:06:52;14.35;;;9.05;;
56567;SDS011;42456;49.956;20.004;2022-08-14T03:09:19;19.52;;;10.00;;
56567;SDS011;42456;49.956;20.004;2022-08-14T03:11:45;12.73;;;8.58;;
56567;SDS011;42456;49.956;20.004;2022-08-14T03:14:11;15.68;;;10.23;;
56567;SDS011;42456;49.956;20.004;2022-08-14T03:16:38;14.98;;;9.78;;
56567;SDS011;42456;49.956;20.004;2022-08-14T03:19:06;15.23;;;10.15;;
56567;SDS011;42456;49.956;20.004;2022-08-14T03:21:34;16.32;;;10.72;;
56567;SDS011;42456;49.956;20.004;2022-08-14T03:24:04;15.18;;;9.98;;
56567;SDS011;42456;49.956;20.004;2022-08-14T03:26:33;18.67;;;11.22;;
56567;SDS011;42456;49.956;20.004;2022-08-14T03:28:59;15.38;;;10.72;;
56567;SDS011;42456;49.956;20.004;2022-08-14T03:31:27;17.23;;;11.43;;
56567;SDS011;42456;49.956;20.004;2022-08-14T03:33:54;16.52;;;11.03;;
56567;SDS011;42456;49.956;20.004;2022-08-14T03:36:21;15.40;;;10.80;;
56567;SDS011;42456;49.956;20.004;2022-08-14T03:38:48;14.73;;;9.55;;
56567;SDS011;42456;49.956;20.004;2022-08-14T03:41:19;15.30;;;9.93;;
56567;SDS011;42456;49.956;20.004;2022-08-14T03:43:53;15.35;;;10.28;;
56567;SDS011;42456;49.956;20.004;2022-08-14T03:46:19;14.73;;;9.85;;
56567;SDS011;42456;49.956;20.004;2022-08-14T03:48:46;15.58;;;10.70;;
56567;SDS011;42456;49.956;20.004;2022-08-14T03:51:13;16.27;;;10.75;;
56567;SDS011;42456;49.956;20.004;2022-08-14T03:53:43;16.62;;;11.48;;
56567;SDS011;42456;49.956;20.004;2022-08-14T03:56:12;16.50;;;11.15;;
56567;SDS011;42456;49.956;20.004;2022-08-14T03:58:44;19.02;;;11.43;;
56567;SDS011;42456;49.956;20.004;2022-08-14T04:01:17;16.77;;;11.73;;
56567;SDS011;42456;49.956;20.004;2022-08-14T04:03:49;16.37;;;11.12;;
56567;SDS011;42456;49.956;20.004;2022-08-14T04:06:19;18.17;;;11.78;;
56567;SDS011;42456;49.956;20.004;2022-08-14T04:08:46;17.00;;;11.33;;
56567;SDS011;42456;49.956;20.004;2022-08-14T04:11:17;18.15;;;11.80;;
56567;SDS011;42456;49.956;20.004;2022-08-14T04:13:45;17.73;;;12.98;;
56567;SDS011;42456;49.956;20.004;2022-08-14T04:16:16;18.87;;;12.53;;
56567;SDS011;42456;49.956;20.004;2022-08-14T04:18:47;17.35;;;12.60;;
56567;SDS011;42456;49.956;20.004;2022-08-14T04:21:17;22.17;;;12.90;;
56567;SDS011;42456;49.956;20.004;2022-08-14T04:23:47;21.62;;;13.65;;
56567;SDS011;42456;49.956;20.004;2022-08-14T04:26:14;19.30;;;13.93;;
56567;SDS011;42456;49.956;20.004;2022-08-14T04:28:45;17.55;;;12.78;;
56567;SDS011;42456;49.956;20.004;2022-08-14T04:31:13;20.77;;;13.30;;
56567;SDS011;42456;49.956;20.004;2022-08-14T04:33:41;23.18;;;14.68;;
56567;SDS011;42456;49.956;20.004;2022-08-14T04:36:08;21.48;;;13.90;;
56567;SDS011;42456;49.956;20.004;2022-08-14T04:38:34;22.95;;;14.25;;
56567;SDS011;42456;49.956;20.004;2022-08-14T04:41:14;19.32;;;12.85;;
56567;SDS011;42456;49.956;20.004;2022-08-14T04:43:54;21.65;;;14.50;;
56567;SDS011;42456;49.956;20.004;2022-08-14T04:46:21;19.85;;;13.80;;
56567;SDS011;42456;49.956;20.004;2022-08-14T04:48:49;23.65;;;13.03;;
56567;SDS011;42456;49.956;20.004;2022-08-14T04:51:19;19.12;;;13.18;;
56567;SDS011;42456;49.956;20.004;2022-08-14T04:53:52;22.40;;;14.10;;
56567;SDS011;42456;49.956;20.004;2022-08-14T04:56:21;21.00;;;13.75;;
56567;SDS011;42456;49.956;20.004;2022-08-14T04:58:50;19.92;;;13.08;;
56567;SDS011;42456;49.956;20.004;2022-08-14T05:01:22;19.65;;;13.30;;
56567;SDS011;42456;49.956;20.004;2022-08-14T05:03:50;22.63;;;13.27;;
56567;SDS011;42456;49.956;20.004;2022-08-14T05:06:17;18.90;;;12.37;;
56567;SDS011;42456;49.956;20.004;2022-08-14T05:08:44;17.90;;;11.75;;
56567;SDS011;42456;49.956;20.004;2022-08-14T05:11:11;18.32;;;12.43;;
56567;SDS011;42456;49.956;20.004;2022-08-14T05:13:37;17.15;;;11.57;;
56567;SDS011;42456;49.956;20.004;2022-08-14T05:16:04;17.00;;;11.70;;
56567;SDS011;42456;49.956;20.004;2022-08-14T05:18:36;16.40;;;10.38;;
56567;SDS011;42456;49.956;20.004;2022-08-14T05:21:03;21.00;;;11.22;;
56567;SDS011;42456;49.956;20.004;2022-08-14T05:23:32;15.75;;;9.78;;
56567;SDS011;42456;49.956;20.004;2022-08-14T05:26:02;14.80;;;9.88;;
56567;SDS011;42456;49.956;20.004;2022-08-14T05:28:33;15.10;;;9.38;;
56567;SDS011;42456;49.956;20.004;2022-08-14T05:31:01;14.63;;;9.05;;
56567;SDS011;42456;49.956;20.004;2022-08-14T05:33:31;17.82;;;9.25;;
56567;SDS011;42456;49.956;20.004;2022-08-14T05:36:02;15.28;;;8.45;;
56567;SDS011;42456;49.956;20.004;2022-08-14T05:38:32;12.90;;;8.63;;
56567;SDS011;42456;49.956;20.004;2022-08-14T05:41:04;14.28;;;8.20;;
56567;SDS011;42456;49.956;20.004;2022-08-14T05:43:34;12.63;;;8.35;;
56567;SDS011;42456;49.956;20.004;2022-08-14T05:46:00;13.80;;;8.85;;
56567;SDS011;42456;49.956;20.004;2022-08-14T05:48:27;15.60;;;9.68;;
56567;SDS011;42456;49.956;20.004;2022-08-14T05:50:54;14.85;;;9.68;;
56567;SDS011;42456;49.956;20.004;2022-08-14T05:53:21;16.32;;;8.80;;
56567;SDS011;42456;49.956;20.004;2022-08-14T05:55:49;15.23;;;9.25;;
56567;SDS011;42456;49.956;20.004;2022-08-14T05:58:17;14.33;;;8.28;;
56567;SDS011;42456;49.956;20.004;2022-08-14T06:00:44;13.70;;;7.75;;
56567;SDS011;42456;49.956;20.004;2022-08-14T06:03:13;11.33;;;7.30;;
56567;SDS011;42456;49.956;20.004;2022-08-14T06:05:42;14.20;;;7.75;;
56567;SDS011;42456;49.956;20.004;2022-08-14T06:08:17;14.27;;;7.00;;
56567;SDS011;42456;49.956;20.004;2022-08-14T06:10:51;10.98;;;6.97;;
56567;SDS011;42456;49.956;20.004;2022-08-14T06:13:20;11.60;;;7.20;;
56567;SDS011;42456;49.956;20.004;2022-08-14T06:15:47;10.08;;;6.22;;
56567;SDS011;42456;49.956;20.004;2022-08-14T06:18:15;10.40;;;6.85;;
56567;SDS011;42456;49.956;20.004;2022-08-14T06:20:42;10.85;;;6.42;;
56567;SDS011;42456;49.956;20.004;2022-08-14T06:23:08;10.05;;;5.80;;
56567;SDS011;42456;49.956;20.004;2022-08-14T06:25:35;9.60;;;5.78;;
56567;SDS011;42456;49.956;20.004;2022-08-14T06:28:01;12.23;;;6.17;;
56567;SDS011;42456;49.956;20.004;2022-08-14T06:30:29;9.38;;;5.90;;
56567;SDS011;42456;49.956;20.004;2022-08-14T06:32:58;9.05;;;5.40;;
56567;SDS011;42456;49.956;20.004;2022-08-14T06:35:25;10.05;;;5.90;;
56567;SDS011;42456;49.956;20.004;2022-08-14T06:37:52;10.03;;;5.75;;
56567;SDS011;42456;49.956;20.004;2022-08-14T06:40:29;8.68;;;5.70;;
56567;SDS011;42456;49.956;20.004;2022-08-14T06:43:03;9.80;;;5.65;;
56567;SDS011;42456;49.956;20.004;2022-08-14T06:45:31;10.13;;;5.40;;
56567;SDS011;42456;49.956;20.004;2022-08-14T06:47:59;9.85;;;6.22;;
56567;SDS011;42456;49.956;20.004;2022-08-14T06:50:26;9.08;;;5.60;;
56567;SDS011;42456;49.956;20.004;2022-08-14T06:52:55;10.90;;;6.08;;
56567;SDS011;42456;49.956;20.004;2022-08-14T06:55:22;9.03;;;5.90;;
56567;SDS011;42456;49.956;20.004;2022-08-14T06:57:49;10.35;;;5.78;;
56567;SDS011;42456;49.956;20.004;2022-08-14T07:00:20;10.45;;;5.85;;
56567;SDS011;42456;49.956;20.004;2022-08-14T07:02:50;9.28;;;6.10;;
56567;SDS011;42456;49.956;20.004;2022-08-14T07:05:31;11.83;;;6.37;;
56567;SDS011;42456;49.956;20.004;2022-08-14T07:08:18;11.03;;;6.37;;
56567;SDS011;42456;49.956;20.004;2022-08-14T07:10:53;11.68;;;6.67;;
56567;SDS011;42456;49.956;20.004;2022-08-14T07:13:23;9.20;;;5.92;;
56567;SDS011;42456;49.956;20.004;2022-08-14T07:15:55;12.28;;;6.97;;
56567;SDS011;42456;49.956;20.004;2022-08-14T07:18:21;10.95;;;6.40;;
56567;SDS011;42456;49.956;20.004;2022-08-14T07:20:51;11.03;;;6.87;;
56567;SDS011;42456;49.956;20.004;2022-08-14T07:23:19;9.70;;;6.45;;
56567;SDS011;42456;49.956;20.004;2022-08-14T07:25:49;9.88;;;6.37;;
56567;SDS011;42456;49.956;20.004;2022-08-14T07:28:23;9.75;;;5.78;;
56567;SDS011;42456;49.956;20.004;2022-08-14T07:31:03;9.63;;;6.15;;
56567;SDS011;42456;49.956;20.004;2022-08-14T07:36:10;10.25;;;6.45;;
56567;SDS011;42456;49.956;20.004;2022-08-14T07:38:38;9.55;;;5.87;;
56567;SDS011;42456;49.956;20.004;2022-08-14T07:41:08;9.48;;;5.83;;
56567;SDS011;42456;49.956;20.004;2022-08-14T07:43:37;9.90;;;5.80;;
56567;SDS011;42456;49.956;20.004;2022-08-14T07:46:05;11.35;;;6.15;;
56567;SDS011;42456;49.956;20.004;2022-08-14T07:48:36;8.63;;;5.75;;
56567;SDS011;42456;49.956;20.004;2022-08-14T07:51:05;7.90;;;5.97;;
56567;SDS011;42456;49.956;20.004;2022-08-14T07:53:32;8.88;;;5.70;;
56567;SDS011;42456;49.956;20.004;2022-08-14T07:55:58;9.00;;;5.92;;
56567;SDS011;42456;49.956;20.004;2022-08-14T07:58:24;7.97;;;5.17;;
56567;SDS011;42456;49.956;20.004;2022-08-14T08:00:53;10.30;;;5.90;;
56567;SDS011;42456;49.956;20.004;2022-08-14T08:03:22;9.80;;;5.78;;
56567;SDS011;42456;49.956;20.004;2022-08-14T08:05:52;10.98;;;6.33;;
56567;SDS011;42456;49.956;20.004;2022-08-14T08:08:18;8.08;;;5.58;;
56567;SDS011;42456;49.956;20.004;2022-08-14T08:10:45;8.80;;;5.95;;
56567;SDS011;42456;49.956;20.004;2022-08-14T08:13:14;8.68;;;5.90;;
56567;SDS011;42456;49.956;20.004;2022-08-14T08:15:54;8.75;;;5.62;;
56567;SDS011;42456;49.956;20.004;2022-08-14T08:18:22;9.65;;;5.65;;
56567;SDS011;42456;49.956;20.004;2022-08-14T08:20:50;9.35;;;5.83;;
56567;SDS011;42456;49.956;20.004;2022-08-14T08:25:47;8.40;;;5.25;;
56567;SDS011;42456;49.956;20.004;2022-08-14T08:28:17;8.75;;;5.45;;
56567;SDS011;42456;49.956;20.004;2022-08-14T08:30:46;8.13;;;5.62;;
56567;SDS011;42456;49.956;20.004;2022-08-14T08:33:19;7.72;;;5.67;;
56567;SDS011;42456;49.956;20.004;2022-08-14T08:38:19;9.05;;;5.55;;
56567;SDS011;42456;49.956;20.004;2022-08-14T08:40:48;10.38;;;5.75;;
56567;SDS011;42456;49.956;20.004;2022-08-14T08:43:24;9.43;;;5.72;;
56567;SDS011;42456;49.956;20.004;2022-08-14T08:46:08;12.28;;;6.70;;
56567;SDS011;42456;49.956;20.004;2022-08-14T08:51:26;10.80;;;6.40;;
56567;SDS011;42456;49.956;20.004;2022-08-14T09:04:38;10.65;;;6.53;;
56567;SDS011;42456;49.956;20.004;2022-08-14T09:07:04;9.38;;;5.97;;
56567;SDS011;42456;49.956;20.004;2022-08-14T09:09:31;8.18;;;5.95;;
56567;SDS011;42456;49.956;20.004;2022-08-14T09:11:59;8.83;;;6.05;;
56567;SDS011;42456;49.956;20.004;2022-08-14T09:14:30;8.80;;;6.17;;
56567;SDS011;42456;49.956;20.004;2022-08-14T09:16:59;9.80;;;6.40;;
56567;SDS011;42456;49.956;20.004;2022-08-14T09:19:26;9.85;;;5.85;;
56567;SDS011;42456;49.956;20.004;2022-08-14T09:21:52;8.93;;;5.97;;
56567;SDS011;42456;49.956;20.004;2022-08-14T09:24:20;7.62;;;5.35;;
56567;SDS011;42456;49.956;20.004;2022-08-14T09:26:46;8.08;;;5.55;;
56567;SDS011;42456;49.956;20.004;2022-08-14T09:29:13;7.33;;;5.20;;
56567;SDS011;42456;49.956;20.004;2022-08-14T09:31:41;9.00;;;5.37;;
56567;SDS011;42456;49.956;20.004;2022-08-14T09:45:17;6.17;;;4.65;;
56567;SDS011;42456;49.956;20.004;2022-08-14T09:48:12;7.47;;;4.95;;
56567;SDS011;42456;49.956;20.004;2022-08-14T09:50:49;5.47;;;4.22;;
56567;SDS011;42456;49.956;20.004;2022-08-14T09:56:11;4.75;;;4.03;;
56567;SDS011;42456;49.956;20.004;2022-08-14T09:58:43;8.23;;;4.10;;
56567;SDS011;42456;49.956;20.004;2022-08-14T10:03:48;5.65;;;3.77;;
56567;SDS011;42456;49.956;20.004;2022-08-14T10:06:19;5.10;;;3.77;;
56567;SDS011;42456;49.956;20.004;2022-08-14T10:08:50;7.37;;;4.30;;
56567;SDS011;42456;49.956;20.004;2022-08-14T10:11:30;4.72;;;3.85;;
56567;SDS011;42456;49.956;20.004;2022-08-14T10:16:45;6.75;;;4.10;;
56567;SDS011;42456;49.956;20.004;2022-08-14T10:19:17;5.47;;;3.75;;
56567;SDS011;42456;49.956;20.004;2022-08-14T10:21:55;5.87;;;3.40;;
56567;SDS011;42456;49.956;20.004;2022-08-14T10:24:30;3.90;;;3.42;;
56567;SDS011;42456;49.956;20.004;2022-08-14T10:27:13;4.62;;;3.15;;
56567;SDS011;42456;49.956;20.004;2022-08-14T10:29:53;4.10;;;3.40;;
56567;SDS011;42456;49.956;20.004;2022-08-14T10:32:24;4.17;;;3.40;;
56567;SDS011;42456;49.956;20.004;2022-08-14T10:35:02;4.20;;;3.20;;
56567;SDS011;42456;49.956;20.004;2022-08-14T10:37:38;3.70;;;3.30;;
56567;SDS011;42456;49.956;20.004;2022-08-14T10:40:14;4.72;;;3.20;;
56567;SDS011;42456;49.956;20.004;2022-08-14T10:42:52;5.58;;;3.55;;
56567;SDS011;42456;49.956;20.004;2022-08-14T10:45:22;5.30;;;3.45;;
56567;SDS011;42456;49.956;20.004;2022-08-14T10:47:58;7.15;;;3.30;;
56567;SDS011;42456;49.956;20.004;2022-08-14T10:50:30;3.97;;;3.57;;
56567;SDS011;42456;49.956;20.004;2022-08-14T10:53:02;3.45;;;3.12;;
56567;SDS011;42456;49.956;20.004;2022-08-14T10:55:34;4.00;;;3.10;;
56567;SDS011;42456;49.956;20.004;2022-08-14T10:58:04;4.53;;;3.15;;
56567;SDS011;42456;49.956;20.004;2022-08-14T11:00:35;3.33;;;3.02;;
56567;SDS011;42456;49.956;20.004;2022-08-14T11:05:38;5.03;;;2.85;;
56567;SDS011;42456;49.956;20.004;2022-08-14T11:08:11;3.55;;;2.98;;
56567;SDS011;42456;49.956;20.004;2022-08-14T11:13:15;4.10;;;3.02;;
56567;SDS011;42456;49.956;20.004;2022-08-14T11:15:45;3.55;;;2.80;;
56567;SDS011;42456;49.956;20.004;2022-08-14T11:18:13;3.07;;;2.87;;
56567;SDS011;42456;49.956;20.004;2022-08-14T11:20:49;4.97;;;3.20;;
56567;SDS011;42456;49.956;20.004;2022-08-14T11:23:28;4.03;;;2.90;;
56567;SDS011;42456;49.956;20.004;2022-08-14T11:25:55;3.08;;;2.77;;
56567;SDS011;42456;49.956;20.004;2022-08-14T11:28:24;4.00;;;2.72;;
56567;SDS011;42456;49.956;20.004;2022-08-14T11:30:54;4.17;;;2.90;;
56567;SDS011;42456;49.956;20.004;2022-08-14T11:33:22;2.87;;;2.67;;
56567;SDS011;42456;49.956;20.004;2022-08-14T11:35:53;2.90;;;2.60;;
56567;SDS011;42456;49.956;20.004;2022-08-14T11:38:21;2.83;;;2.62;;
56567;SDS011;42456;49.956;20.004;2022-08-14T11:40:47;3.00;;;2.58;;
56567;SDS011;42456;49.956;20.004;2022-08-14T11:43:14;3.02;;;2.67;;
56567;SDS011;42456;49.956;20.004;2022-08-14T11:45:43;3.80;;;2.87;;
56567;SDS011;42456;49.956;20.004;2022-08-14T11:48:18;2.90;;;2.60;;
56567;SDS011;42456;49.956;20.004;2022-08-14T11:50:50;2.87;;;2.52;;
56567;SDS011;42456;49.956;20.004;2022-08-14T11:55:56;2.52;;;2.33;;
56567;SDS011;42456;49.956;20.004;2022-08-14T11:58:28;4.12;;;2.60;;
56567;SDS011;42456;49.956;20.004;2022-08-14T12:01:01;4.12;;;3.20;;
56567;SDS011;42456;49.956;20.004;2022-08-14T12:03:42;3.47;;;3.08;;
56567;SDS011;42456;49.956;20.004;2022-08-14T12:06:09;4.15;;;3.02;;
56567;SDS011;42456;49.956;20.004;2022-08-14T12:08:38;4.78;;;3.05;;
56567;SDS011;42456;49.956;20.004;2022-08-14T12:11:05;3.08;;;2.77;;
56567;SDS011;42456;49.956;20.004;2022-08-14T12:13:34;3.27;;;2.72;;
56567;SDS011;42456;49.956;20.004;2022-08-14T12:16:06;3.22;;;2.77;;
56567;SDS011;42456;49.956;20.004;2022-08-14T12:18:33;3.75;;;2.80;;
56567;SDS011;42456;49.956;20.004;2022-08-14T12:23:47;2.90;;;2.70;;
56567;SDS011;42456;49.956;20.004;2022-08-14T12:26:29;2.85;;;2.58;;
56567;SDS011;42456;49.956;20.004;2022-08-14T12:29:06;4.03;;;2.80;;
56567;SDS011;42456;49.956;20.004;2022-08-14T12:31:38;3.10;;;2.80;;
56567;SDS011;42456;49.956;20.004;2022-08-14T12:34:07;3.20;;;2.90;;
56567;SDS011;42456;49.956;20.004;2022-08-14T12:36:36;3.15;;;2.85;;
56567;SDS011;42456;49.956;20.004;2022-08-14T12:39:04;3.17;;;2.85;;
56567;SDS011;42456;49.956;20.004;2022-08-14T12:41:50;3.25;;;2.92;;
56567;SDS011;42456;49.956;20.004;2022-08-14T12:44:30;3.67;;;2.98;;
56567;SDS011;42456;49.956;20.004;2022-08-14T12:47:09;3.80;;;3.10;;
56567;SDS011;42456;49.956;20.004;2022-08-14T12:49:49;5.08;;;3.37;;
56567;SDS011;42456;49.956;20.004;2022-08-14T12:52:52;4.30;;;3.10;;
56567;SDS011;42456;49.956;20.004;2022-08-14T12:55:00;3.47;;;2.95;;
56567;SDS011;42456;49.956;20.004;2022-08-14T12:57:35;4.12;;;3.08;;
56567;SDS011;42456;49.956;20.004;2022-08-14T13:00:17;6.00;;;3.58;;
56567;SDS011;42456;49.956;20.004;2022-08-14T13:02:48;5.78;;;3.70;;
56567;SDS011;42456;49.956;20.004;2022-08-14T13:05:22;5.40;;;3.60;;
56567;SDS011;42456;49.956;20.004;2022-08-14T13:07:55;5.53;;;3.40;;
56567;SDS011;42456;49.956;20.004;2022-08-14T13:10:23;4.87;;;3.85;;
56567;SDS011;42456;49.956;20.004;2022-08-14T13:12:51;6.42;;;4.42;;
56567;SDS011;42456;49.956;20.004;2022-08-14T13:15:22;6.00;;;4.50;;
56567;SDS011;42456;49.956;20.004;2022-08-14T13:17:49;7.25;;;5.10;;
56567;SDS011;42456;49.956;20.004;2022-08-14T13:20:19;7.85;;;5.20;;
56567;SDS011;42456;49.956;20.004;2022-08-14T13:22:49;7.47;;;5.33;;
56567;SDS011;42456;49.956;20.004;2022-08-14T13:25:20;6.70;;;4.62;;
56567;SDS011;42456;49.956;20.004;2022-08-14T13:27:51;6.30;;;5.05;;
56567;SDS011;42456;49.956;20.004;2022-08-14T13:30:23;6.78;;;5.17;;
56567;SDS011;42456;49.956;20.004;2022-08-14T13:32:52;6.83;;;4.90;;
56567;SDS011;42456;49.956;20.004;2022-08-14T13:35:20;6.67;;;5.15;;
56567;SDS011;42456;49.956;20.004;2022-08-14T13:37:47;6.85;;;4.90;;
56567;SDS011;42456;49.956;20.004;2022-08-14T13:40:15;7.37;;;5.00;;
56567;SDS011;42456;49.956;20.004;2022-08-14T13:42:45;7.55;;;5.42;;
56567;SDS011;42456;49.956;20.004;2022-08-14T13:45:15;8.93;;;5.35;;
56567;SDS011;42456;49.956;20.004;2022-08-14T13:47:42;7.97;;;5.30;;
56567;SDS011;42456;49.956;20.004;2022-08-14T13:50:10;8.88;;;5.65;;
56567;SDS011;42456;49.956;20.004;2022-08-14T13:52:47;8.83;;;5.62;;
56567;SDS011;42456;49.956;20.004;2022-08-14T13:55:20;8.35;;;5.60;;
56567;SDS011;42456;49.956;20.004;2022-08-14T13:57:54;7.00;;;5.50;;
56567;SDS011;42456;49.956;20.004;2022-08-14T14:00:50;7.80;;;5.45;;
56567;SDS011;42456;49.956;20.004;2022-08-14T14:03:18;9.00;;;5.62;;
56567;SDS011;42456;49.956;20.004;2022-08-14T14:05:54;7.92;;;5.17;;
56567;SDS011;42456;49.956;20.004;2022-08-14T14:08:19;7.72;;;5.70;;
56567;SDS011;42456;49.956;20.004;2022-08-14T14:10:47;9.28;;;5.40;;
56567;SDS011;42456;49.956;20.004;2022-08-14T14:13:14;9.98;;;5.60;;
56567;SDS011;42456;49.956;20.004;2022-08-14T14:15:43;8.75;;;5.35;;
56567;SDS011;42456;49.956;20.004;2022-08-14T14:18:09;7.25;;;5.42;;
56567;SDS011;42456;49.956;20.004;2022-08-14T14:20:36;8.53;;;5.40;;
56567;SDS011;42456;49.956;20.004;2022-08-14T14:23:03;7.92;;;5.22;;
56567;SDS011;42456;49.956;20.004;2022-08-14T14:25:32;8.13;;;5.43;;
56567;SDS011;42456;49.956;20.004;2022-08-14T14:27:59;9.73;;;6.22;;
56567;SDS011;42456;49.956;20.004;2022-08-14T14:30:27;6.95;;;5.40;;
56567;SDS011;42456;49.956;20.004;2022-08-14T14:32:55;8.50;;;5.72;;
56567;SDS011;42456;49.956;20.004;2022-08-14T14:35:24;10.80;;;6.15;;
56567;SDS011;42456;49.956;20.004;2022-08-14T14:37:52;8.25;;;5.37;;
56567;SDS011;42456;49.956;20.004;2022-08-14T14:40:19;7.33;;;5.15;;
56567;SDS011;42456;49.956;20.004;2022-08-14T14:42:47;7.28;;;5.30;;
56567;SDS011;42456;49.956;20.004;2022-08-14T14:45:20;7.47;;;5.47;;
56567;SDS011;42456;49.956;20.004;2022-08-14T14:47:51;8.30;;;5.65;;
56567;SDS011;42456;49.956;20.004;2022-08-14T14:50:20;8.53;;;5.75;;
56567;SDS011;42456;49.956;20.004;2022-08-14T14:52:48;8.55;;;5.42;;
56567;SDS011;42456;49.956;20.004;2022-08-14T14:55:17;8.78;;;6.15;;
56567;SDS011;42456;49.956;20.004;2022-08-14T14:57:43;10.53;;;6.28;;
56567;SDS011;42456;49.956;20.004;2022-08-14T15:00:12;9.68;;;5.95;;
56567;SDS011;42456;49.956;20.004;2022-08-14T15:02:42;8.55;;;6.20;;
56567;SDS011;42456;49.956;20.004;2022-08-14T15:05:13;6.28;;;5.47;;
56567;SDS011;42456;49.956;20.004;2022-08-14T15:07:42;9.08;;;6.55;;
56567;SDS011;42456;49.956;20.004;2022-08-14T15:10:12;12.15;;;6.50;;
56567;SDS011;42456;49.956;20.004;2022-08-14T15:12:40;9.00;;;5.70;;
56567;SDS011;42456;49.956;20.004;2022-08-14T15:15:08;9.20;;;6.10;;
56567;SDS011;42456;49.956;20.004;2022-08-14T15:17:36;9.70;;;6.45;;
56567;SDS011;42456;49.956;20.004;2022-08-14T15:20:11;10.68;;;6.55;;
56567;SDS011;42456;49.956;20.004;2022-08-14T15:22:40;13.60;;;6.92;;
56567;SDS011;42456;49.956;20.004;2022-08-14T15:25:07;9.70;;;6.75;;
56567;SDS011;42456;49.956;20.004;2022-08-14T15:27:37;10.50;;;6.62;;
56567;SDS011;42456;49.956;20.004;2022-08-14T15:30:04;9.15;;;6.40;;
56567;SDS011;42456;49.956;20.004;2022-08-14T15:32:33;11.97;;;7.20;;
56567;SDS011;42456;49.956;20.004;2022-08-14T15:35:00;9.28;;;6.55;;